Terminal Aerodrome Forecast
Issued by NWS

Home | Current Version | Previous Version | Text Only | Print | Product List | Glossary On
Versions: 1 2 3 4 5 6 7 8 9 10 11 12 13 14
000
FTUS45 KRIW 171920 AAA
TAFBPI
TAF AMD
KBPI 171920Z 1719/1818 35013G18KT P6SM SCT100
     FM180100 34008KT P6SM FEW110
     FM180700 VRB05KT P6SM SKC=

USA.gov is the U.S. government's official web portal to all federal, state and local government web resources and services.